Bene Beraq, Israel
Current Conditions -  °F | °C
As of 11:50 AM on Friday 21 Nov 2014 (Local Time) from LLSD Reporting Station
Scattered Clouds Scattered Clouds  
Wind Chill: 73°   Ceiling: Unl
Heat Index: 73°   Visibility: 6mi
Dew Point: 61°   Wind: 14mph
Humidity: 65%   Direction: 230°SW
Pressure: 29.88"   Gusts: NA
Location:  32.09°N, 34.85°E
Report Text: LLSD 210850Z 23012KT 9999 SCT030 23/16 Q1012
Loading
Personal Weather Stations






























Interactive Weather Map New forecast layout! Learn more

10-Day Weather Forecast

Advertisements
Track Severe Weather on mobile